createdAt,value
2023-03-13T00:02:13.227Z,75.62
2023-03-13T00:04:40.816Z,77.42
2023-03-13T00:07:08.328Z,78.35
2023-03-13T00:09:35.796Z,77.11
2023-03-13T00:12:04.052Z,77.87
2023-03-13T00:14:32.478Z,77.73
2023-03-13T00:17:01.110Z,78.77
2023-03-13T00:19:29.580Z,78.05
2023-03-13T00:21:57.605Z,79.82
2023-03-13T00:24:25.185Z,83.44
2023-03-13T00:26:52.671Z,84.17
2023-03-13T00:29:20.792Z,82.00
2023-03-13T00:31:48.724Z,81.64
2023-03-13T00:34:17.468Z,81.81
2023-03-13T00:36:45.222Z,81.68
2023-03-13T00:39:12.723Z,81.29
2023-03-13T00:41:40.825Z,81.54
2023-03-13T00:44:09.408Z,81.46
2023-03-13T00:46:37.840Z,81.89
2023-03-13T00:49:06.834Z,81.46
2023-03-13T00:51:36.096Z,81.49
2023-03-13T00:54:04.953Z,81.28
2023-03-13T00:56:33.696Z,81.72
2023-03-13T00:59:02.538Z,81.74
2023-03-13T01:01:35.294Z,81.71
2023-03-13T01:04:08.677Z,81.30
2023-03-13T01:06:38.804Z,82.48
2023-03-13T01:09:07.765Z,82.65
2023-03-13T01:11:39.404Z,81.55
2023-03-13T01:14:11.616Z,80.37
2023-03-13T01:16:40.557Z,79.48
2023-03-13T01:19:13.406Z,77.72
2023-03-13T01:21:43.545Z,76.67
2023-03-13T01:24:11.922Z,75.87
2023-03-13T01:26:40.087Z,75.70
2023-03-13T01:29:07.636Z,76.06
2023-03-13T01:31:36.536Z,74.98
2023-03-13T01:34:08.200Z,75.38
2023-03-13T01:36:37.846Z,74.73
2023-03-13T01:39:06.716Z,74.69
2023-03-13T01:41:34.924Z,74.73
2023-03-13T01:44:03.635Z,74.79
2023-03-13T01:46:36.937Z,75.02
2023-03-13T01:49:18.436Z,74.22
2023-03-13T01:52:03.970Z,74.54
2023-03-13T01:54:42.732Z,75.14
2023-03-13T01:57:25.145Z,74.96
2023-03-13T02:00:02.273Z,75.10
2023-03-13T02:02:46.921Z,74.85
2023-03-13T02:05:17.181Z,74.40
2023-03-13T02:08:02.107Z,73.46
2023-03-13T02:10:32.068Z,73.43
2023-03-13T02:13:03.043Z,72.39
2023-03-13T02:15:31.578Z,71.48
2023-03-13T02:18:00.764Z,71.85
2023-03-13T02:20:28.441Z,71.64
2023-03-13T02:23:04.779Z,71.65
2023-03-13T02:25:49.715Z,73.18
2023-03-13T02:28:33.877Z,73.14
2023-03-13T02:31:03.837Z,73.35
2023-03-13T02:33:37.765Z,73.00
2023-03-13T02:36:07.085Z,73.18
2023-03-13T02:38:43.025Z,73.19
2023-03-13T02:41:13.699Z,72.97
2023-03-13T02:43:42.100Z,72.52
2023-03-13T02:46:15.118Z,73.45
2023-03-13T02:48:48.146Z,73.50
2023-03-13T02:51:52.531Z,73.51
2023-03-13T02:54:24.264Z,73.80
2023-03-13T02:57:00.148Z,73.88
2023-03-13T02:59:28.635Z,73.78
2023-03-13T03:01:56.672Z,75.36
2023-03-13T03:04:26.670Z,77.51
2023-03-13T03:06:57.755Z,77.31
2023-03-13T03:09:26.187Z,75.45
2023-03-13T03:11:59.290Z,75.19
2023-03-13T03:14:30.431Z,74.78
2023-03-13T03:16:58.917Z,74.40
2023-03-13T03:19:28.071Z,72.80
2023-03-13T03:21:56.739Z,71.72
2023-03-13T03:24:24.960Z,72.44
2023-03-13T03:26:52.529Z,72.03
2023-03-13T03:29:27.941Z,72.48
2023-03-13T03:31:56.697Z,72.59
2023-03-13T03:34:24.390Z,73.29
2023-03-13T03:36:53.623Z,74.04
2023-03-13T03:39:22.021Z,75.16
2023-03-13T03:41:50.327Z,75.82
2023-03-13T03:44:19.164Z,77.30
2023-03-13T03:47:05.990Z,78.50
2023-03-13T03:49:38.733Z,78.25
2023-03-13T03:52:07.447Z,78.71
2023-03-13T03:54:41.145Z,79.20
2023-03-13T03:57:08.608Z,79.73
2023-03-13T03:59:37.807Z,80.17
2023-03-13T04:02:09.544Z,79.88
2023-03-13T04:04:37.736Z,80.01
2023-03-13T04:07:26.388Z,79.40
2023-03-13T04:09:54.429Z,79.26
2023-03-13T04:12:28.374Z,79.21
2023-03-13T04:14:56.626Z,78.82
2023-03-13T04:17:24.272Z,78.22
2023-03-13T04:19:52.811Z,78.03
2023-03-13T04:22:20.794Z,76.93
2023-03-13T04:24:53.507Z,75.98
2023-03-13T04:27:23.380Z,76.09
2023-03-13T04:29:52.172Z,76.50
2023-03-13T04:32:35.262Z,75.80
2023-03-13T04:35:21.806Z,76.08
2023-03-13T04:38:08.804Z,75.08
2023-03-13T04:40:59.996Z,77.50
2023-03-13T04:43:51.030Z,76.54
2023-03-13T04:46:37.005Z,76.30
2023-03-13T04:49:16.938Z,75.58
2023-03-13T04:51:47.752Z,74.57
2023-03-13T04:54:27.185Z,74.65
2023-03-13T04:57:17.897Z,74.70
2023-03-13T05:00:18.047Z,75.14
2023-03-13T05:03:05.048Z,74.72
2023-03-13T05:06:11.702Z,75.03
2023-03-13T05:08:39.699Z,74.56
2023-03-13T05:11:25.844Z,73.67
2023-03-13T05:14:11.753Z,74.27
2023-03-13T05:16:51.611Z,73.34
2023-03-13T05:19:51.278Z,73.24
2023-03-13T05:22:45.395Z,72.70
2023-03-13T05:25:35.809Z,73.80
2023-03-13T05:28:15.377Z,73.74
2023-03-13T05:30:55.167Z,74.69
2023-03-13T05:33:25.437Z,75.80
2023-03-13T05:36:05.306Z,75.51
2023-03-13T05:38:52.334Z,75.56
2023-03-13T05:41:48.647Z,75.44
2023-03-13T05:44:16.708Z,74.98
2023-03-13T05:47:00.348Z,75.78
2023-03-13T05:49:54.952Z,77.18
2023-03-13T05:52:45.883Z,77.74
2023-03-13T05:55:42.951Z,77.59
2023-03-13T05:58:22.035Z,77.44
2023-03-13T06:01:14.772Z,76.97
2023-03-13T06:03:42.433Z,77.57
2023-03-13T06:06:12.029Z,77.67
2023-03-13T06:08:45.455Z,76.73
2023-03-13T06:11:14.091Z,76.89
2023-03-13T06:13:42.413Z,76.82
2023-03-13T06:16:26.564Z,75.82
2023-03-13T06:18:58.955Z,75.27
2023-03-13T06:21:27.021Z,75.82
2023-03-13T06:23:55.807Z,75.83
2023-03-13T06:26:25.734Z,75.55
2023-03-13T06:28:53.332Z,75.94
2023-03-13T06:31:22.032Z,75.22
2023-03-13T06:33:54.507Z,75.26
2023-03-13T06:36:24.661Z,74.70
2023-03-13T06:38:52.799Z,74.17
2023-03-13T06:41:20.957Z,73.55
2023-03-13T06:43:49.505Z,72.56
2023-03-13T06:46:20.723Z,71.73
2023-03-13T06:48:49.223Z,69.93
2023-03-13T06:51:19.626Z,73.90
2023-03-13T06:53:48.078Z,72.95
2023-03-13T06:56:16.315Z,71.52
2023-03-13T06:58:47.160Z,69.05
2023-03-13T07:01:17.963Z,68.72
2023-03-13T07:03:48.308Z,67.60
2023-03-13T07:06:17.030Z,66.21
2023-03-13T07:08:45.737Z,62.77
2023-03-13T07:11:16.177Z,60.54
2023-03-13T07:13:43.876Z,60.37
2023-03-13T07:16:14.313Z,59.64
2023-03-13T07:18:42.483Z,58.98
2023-03-13T07:21:11.660Z,59.98
2023-03-13T07:23:40.026Z,59.21
2023-03-13T07:26:12.374Z,60.19
2023-03-13T07:28:40.628Z,59.86
2023-03-13T07:31:12.498Z,59.74
2023-03-13T07:33:40.773Z,59.22
2023-03-13T07:36:09.585Z,59.88
2023-03-13T07:38:37.553Z,59.08
2023-03-13T07:41:05.613Z,58.68
2023-03-13T07:43:33.821Z,57.60
2023-03-13T07:46:06.931Z,58.35
2023-03-13T07:48:37.058Z,57.58
2023-03-13T07:51:06.285Z,56.74
2023-03-13T07:53:36.126Z,56.38
2023-03-13T07:56:07.693Z,56.43
2023-03-13T07:58:37.703Z,56.66
2023-03-13T08:01:27.856Z,60.32
2023-03-13T08:03:56.766Z,63.38
2023-03-13T08:06:27.049Z,63.59
2023-03-13T08:08:58.306Z,66.48
2023-03-13T08:11:28.292Z,66.76
2023-03-13T08:13:57.888Z,65.29
2023-03-13T08:16:28.634Z,64.73
2023-03-13T08:18:58.786Z,64.05
2023-03-13T08:21:29.010Z,62.77
2023-03-13T08:23:59.321Z,63.08
2023-03-13T08:26:31.208Z,62.21
2023-03-13T08:29:01.506Z,57.66
2023-03-13T08:31:33.223Z,56.02
2023-03-13T08:34:01.518Z,55.26
2023-03-13T08:36:31.817Z,53.40
2023-03-13T08:39:02.425Z,53.34
2023-03-13T08:41:33.888Z,51.72
2023-03-13T08:44:03.401Z,51.85
2023-03-13T08:46:33.448Z,52.21
2023-03-13T08:49:01.812Z,51.34
2023-03-13T08:51:29.861Z,49.57
2023-03-13T08:53:58.049Z,47.52
2023-03-13T08:56:28.203Z,47.38
2023-03-13T08:59:01.058Z,50.54
2023-03-13T09:01:31.582Z,49.70
2023-03-13T09:04:03.520Z,47.66
2023-03-13T09:06:36.876Z,47.29
2023-03-13T09:09:05.628Z,53.67
2023-03-13T09:11:33.771Z,54.05
2023-03-13T09:14:01.292Z,50.04
2023-03-13T09:16:31.820Z,47.36
2023-03-13T09:19:00.269Z,45.42
2023-03-13T09:21:33.889Z,45.36
2023-03-13T09:24:01.939Z,47.85
2023-03-13T09:26:30.093Z,46.36
2023-03-13T09:28:58.891Z,44.19
2023-03-13T09:31:28.903Z,43.55
2023-03-13T09:33:56.774Z,42.48
2023-03-13T09:36:25.046Z,42.22
2023-03-13T09:38:55.764Z,42.18
2023-03-13T09:41:48.200Z,41.79
2023-03-13T09:44:16.175Z,41.28
2023-03-13T09:47:23.098Z,40.48
2023-03-13T09:49:57.179Z,39.77
2023-03-13T09:52:27.184Z,39.76
2023-03-13T09:55:17.374Z,39.81
2023-03-13T09:57:51.664Z,40.86
2023-03-13T10:00:24.880Z,39.11
2023-03-13T10:03:11.170Z,37.80
2023-03-13T10:05:46.903Z,39.22
2023-03-13T10:08:17.196Z,39.03
2023-03-13T10:11:10.085Z,39.66
2023-03-13T10:13:47.077Z,38.90
2023-03-13T10:16:38.941Z,38.61
2023-03-13T10:19:14.432Z,37.61
2023-03-13T10:21:45.993Z,36.75
2023-03-13T10:24:35.701Z,36.22
2023-03-13T10:27:03.752Z,35.04
2023-03-13T10:29:32.180Z,35.38
2023-03-13T10:32:02.430Z,36.96
2023-03-13T10:34:52.410Z,38.40
2023-03-13T10:37:32.128Z,37.43
2023-03-13T10:40:35.319Z,37.47
2023-03-13T10:43:13.180Z,37.52
2023-03-13T10:45:40.922Z,39.94
2023-03-13T10:48:21.226Z,40.33
2023-03-13T10:50:52.863Z,39.67
2023-03-13T10:53:21.030Z,39.02
2023-03-13T10:55:49.939Z,39.04
2023-03-13T10:58:23.390Z,39.30
2023-03-13T11:00:51.077Z,38.58
2023-03-13T11:03:24.907Z,38.49
2023-03-13T11:05:59.880Z,38.18
2023-03-13T11:08:34.361Z,37.52
2023-03-13T11:11:17.304Z,37.19
2023-03-13T11:13:46.096Z,38.43
2023-03-13T11:16:23.534Z,36.74
2023-03-13T11:19:17.443Z,34.39
2023-03-13T11:22:04.681Z,34.14
2023-03-13T11:24:49.327Z,35.08
2023-03-13T11:27:29.358Z,35.01
2023-03-13T11:30:04.042Z,33.45
2023-03-13T11:32:43.101Z,32.73
2023-03-13T11:35:28.410Z,31.80
2023-03-13T11:38:00.056Z,30.26
2023-03-13T11:40:52.144Z,29.12
2023-03-13T11:43:36.037Z,29.02
2023-03-13T11:46:10.221Z,29.54
2023-03-13T11:48:57.295Z,30.34
2023-03-13T11:51:49.600Z,29.62
2023-03-13T11:54:49.622Z,28.52
2023-03-13T11:57:31.514Z,29.69
2023-03-13T12:00:24.237Z,28.76
2023-03-13T12:03:13.381Z,27.58
2023-03-13T12:05:54.060Z,29.33
2023-03-13T12:08:39.068Z,28.03
2023-03-13T12:11:09.335Z,29.43
2023-03-13T12:13:46.795Z,29.36
2023-03-13T12:16:27.036Z,28.47
2023-03-13T12:18:56.393Z,27.65
2023-03-13T12:21:53.166Z,26.11
2023-03-13T12:24:29.943Z,26.87
2023-03-13T12:27:02.774Z,26.50
2023-03-13T12:29:43.122Z,28.86
2023-03-13T12:32:36.795Z,26.73
2023-03-13T12:35:33.246Z,27.04
2023-03-13T12:38:33.423Z,27.55
2023-03-13T12:41:25.732Z,27.74
2023-03-13T12:44:09.704Z,28.64
2023-03-13T12:46:43.341Z,30.56
2023-03-13T12:49:32.870Z,29.47
2023-03-13T12:52:19.525Z,30.69
2023-03-13T12:54:56.168Z,30.44
2023-03-13T12:58:07.063Z,31.35
2023-03-13T13:00:39.990Z,30.76
2023-03-13T13:03:40.187Z,29.67
2023-03-13T13:06:14.377Z,28.06
2023-03-13T13:09:02.327Z,29.48
2023-03-13T13:11:35.650Z,29.06
2023-03-13T13:14:18.727Z,28.57
2023-03-13T13:16:52.330Z,27.93
2023-03-13T13:19:23.908Z,29.08
2023-03-13T13:22:29.564Z,30.80
2023-03-13T13:25:01.651Z,30.87
2023-03-13T13:27:32.577Z,28.79
2023-03-13T13:30:18.467Z,27.49
2023-03-13T13:32:56.291Z,26.62
2023-03-13T13:35:35.053Z,25.57
2023-03-13T13:38:18.218Z,25.57
2023-03-13T13:41:10.365Z,25.21
2023-03-13T13:43:38.435Z,23.97
2023-03-13T13:46:31.436Z,22.67
2023-03-13T13:49:08.330Z,25.26
2023-03-13T13:51:40.977Z,24.69
2023-03-13T13:54:47.529Z,22.65
2023-03-13T13:57:28.020Z,22.93
2023-03-13T14:00:23.979Z,21.50
2023-03-13T14:02:54.288Z,20.24
2023-03-13T14:05:26.932Z,18.54
2023-03-13T14:08:01.083Z,17.60
2023-03-13T14:10:42.890Z,19.23
2023-03-13T14:13:22.094Z,19.81
2023-03-13T14:15:53.458Z,19.16
2023-03-13T14:18:29.742Z,18.61
2023-03-13T14:20:57.636Z,19.19
2023-03-13T14:23:42.437Z,21.38
2023-03-13T14:26:12.872Z,19.52
2023-03-13T14:28:43.341Z,19.77
2023-03-13T14:31:21.214Z,19.85
2023-03-13T14:33:50.301Z,18.15
2023-03-13T14:36:18.232Z,18.33
2023-03-13T14:39:01.201Z,19.19
2023-03-13T14:41:31.158Z,21.52
2023-03-13T14:44:06.925Z,19.13
2023-03-13T14:46:41.923Z,20.37
2023-03-13T14:49:18.336Z,20.17
2023-03-13T14:51:49.975Z,24.80
2023-03-13T14:54:26.992Z,27.13
2023-03-13T14:57:09.833Z,24.15
2023-03-13T14:59:38.091Z,21.03
2023-03-13T15:02:15.306Z,19.28
2023-03-13T15:04:56.114Z,18.01
2023-03-13T15:07:27.942Z,19.28
2023-03-13T15:09:57.419Z,20.79
2023-03-13T15:12:25.859Z,20.33
2023-03-13T15:14:53.593Z,19.74
2023-03-13T15:17:27.279Z,20.37
2023-03-13T15:19:59.728Z,22.23
2023-03-13T15:22:30.669Z,23.28
2023-03-13T15:25:07.473Z,23.43
2023-03-13T15:27:36.064Z,22.87
2023-03-13T15:30:04.519Z,23.21
2023-03-13T15:32:40.340Z,24.66
2023-03-13T15:35:32.772Z,25.36
2023-03-13T15:38:01.776Z,27.06
2023-03-13T15:40:31.142Z,26.59
2023-03-13T15:42:59.590Z,26.54
2023-03-13T15:45:27.880Z,26.77
2023-03-13T15:47:55.976Z,24.96
2023-03-13T15:50:29.736Z,24.50
2023-03-13T15:53:00.854Z,25.50
2023-03-13T15:55:29.502Z,27.75
2023-03-13T15:57:57.477Z,30.24
2023-03-13T16:00:27.165Z,31.92
2023-03-13T16:02:57.522Z,100.00
2023-03-13T16:05:25.117Z,35.64
2023-03-13T16:07:53.329Z,36.03
2023-03-13T16:10:27.276Z,36.45
2023-03-13T16:12:55.683Z,37.01
2023-03-13T16:15:24.626Z,37.11
2023-03-13T16:17:52.232Z,36.98
2023-03-13T16:20:23.676Z,36.80
2023-03-13T16:22:53.559Z,38.53
2023-03-13T16:25:23.723Z,37.77
2023-03-13T16:27:55.051Z,38.13
2023-03-13T16:30:32.198Z,38.26
2023-03-13T16:33:00.682Z,39.85
2023-03-13T16:35:29.051Z,39.07
2023-03-13T16:37:58.072Z,40.45
2023-03-13T16:40:29.493Z,41.42
2023-03-13T16:42:57.097Z,41.87
2023-03-13T16:45:25.301Z,41.61
2023-03-13T16:47:53.591Z,41.83
2023-03-13T16:50:25.753Z,41.83
2023-03-13T16:52:54.502Z,41.66
2023-03-13T16:55:28.117Z,42.12
2023-03-13T16:57:58.564Z,42.42
2023-03-13T17:00:29.592Z,42.79
2023-03-13T17:02:58.274Z,43.14
2023-03-13T17:05:27.449Z,43.05
2023-03-13T17:07:55.601Z,42.79
2023-03-13T17:10:26.936Z,43.29
2023-03-13T17:12:54.761Z,43.30
2023-03-13T17:15:24.658Z,43.27
2023-03-13T17:17:54.270Z,43.56
2023-03-13T17:20:28.861Z,43.50
2023-03-13T17:22:57.506Z,43.59
2023-03-13T17:25:26.148Z,43.57
2023-03-13T17:27:54.420Z,43.82
2023-03-13T17:30:24.229Z,43.79
2023-03-13T17:32:52.533Z,43.90
2023-03-13T17:35:21.070Z,44.60
2023-03-13T17:37:48.733Z,44.89
2023-03-13T17:40:20.314Z,44.86
2023-03-13T17:42:48.450Z,44.92
2023-03-13T17:45:16.329Z,44.80
2023-03-13T17:47:44.631Z,45.04
2023-03-13T17:50:24.280Z,45.02
2023-03-13T17:52:51.959Z,45.38
2023-03-13T17:55:19.872Z,44.96
2023-03-13T17:57:48.914Z,45.03
2023-03-13T18:00:26.252Z,45.25
2023-03-13T18:02:54.336Z,45.07
2023-03-13T18:05:22.400Z,45.62
2023-03-13T18:07:51.026Z,45.26
2023-03-13T18:10:25.543Z,45.96
2023-03-13T18:12:54.744Z,45.81
2023-03-13T18:15:25.111Z,46.27
2023-03-13T18:17:52.871Z,46.64
2023-03-13T18:20:24.918Z,46.86
2023-03-13T18:22:53.995Z,46.71
2023-03-13T18:25:22.546Z,46.85
2023-03-13T18:27:50.576Z,46.82
2023-03-13T18:30:22.478Z,46.69
2023-03-13T18:32:50.771Z,46.73
2023-03-13T18:35:19.066Z,46.60
2023-03-13T18:37:48.679Z,46.77
2023-03-13T18:40:28.918Z,47.19
2023-03-13T18:42:57.465Z,47.02
2023-03-13T18:45:26.578Z,47.21
2023-03-13T18:47:54.897Z,48.51
2023-03-13T18:50:31.312Z,49.18
2023-03-13T18:53:00.200Z,49.65
2023-03-13T18:55:30.745Z,49.78
2023-03-13T18:57:58.892Z,50.65
2023-03-13T19:00:29.703Z,50.46
2023-03-13T19:02:58.247Z,50.86
2023-03-13T19:05:25.832Z,51.36
2023-03-13T19:07:53.822Z,52.16
2023-03-13T19:10:27.517Z,54.01
2023-03-13T19:12:56.905Z,54.70
2023-03-13T19:15:29.285Z,55.48
2023-03-13T19:18:02.692Z,56.42
2023-03-13T19:20:31.015Z,57.26
2023-03-13T19:23:00.850Z,57.49
2023-03-13T19:25:29.456Z,57.61
2023-03-13T19:27:57.841Z,57.35
2023-03-13T19:30:26.718Z,56.48
2023-03-13T19:32:54.351Z,55.75
2023-03-13T19:35:22.667Z,55.99
2023-03-13T19:37:52.635Z,57.04
2023-03-13T19:40:24.069Z,56.38
2023-03-13T19:42:51.806Z,56.45
2023-03-13T19:45:22.067Z,57.30
2023-03-13T19:47:50.381Z,57.35
2023-03-13T19:50:27.589Z,57.00
2023-03-13T19:52:55.311Z,57.66
2023-03-13T19:55:23.580Z,58.76
2023-03-13T19:57:51.480Z,59.12
2023-03-13T20:00:25.234Z,59.79
2023-03-13T20:02:55.318Z,58.66
2023-03-13T20:05:23.969Z,58.42
2023-03-13T20:07:53.982Z,58.69
2023-03-13T20:10:23.129Z,58.52
2023-03-13T20:12:50.850Z,59.61
2023-03-13T20:15:18.622Z,59.92
2023-03-13T20:17:46.463Z,60.50
2023-03-13T20:20:15.012Z,60.67
2023-03-13T20:22:43.662Z,61.24
2023-03-13T20:25:11.734Z,61.09
2023-03-13T20:27:39.782Z,61.71
2023-03-13T20:30:08.741Z,61.72
2023-03-13T20:32:41.157Z,62.23
2023-03-13T20:35:14.860Z,60.81
2023-03-13T20:37:42.933Z,61.41
2023-03-13T20:40:12.544Z,62.44
2023-03-13T20:42:40.471Z,61.90
2023-03-13T20:45:09.578Z,61.35
2023-03-13T20:47:37.593Z,61.67
2023-03-13T20:50:05.375Z,61.54
2023-03-13T20:52:33.960Z,62.56
2023-03-13T20:55:01.634Z,61.63
2023-03-13T20:57:29.830Z,61.28
2023-03-13T20:59:58.239Z,60.62
2023-03-13T21:02:25.865Z,59.63
2023-03-13T21:04:53.973Z,60.20
2023-03-13T21:07:21.460Z,62.32
2023-03-13T21:09:49.961Z,62.33
2023-03-13T21:12:17.613Z,61.79
2023-03-13T21:14:46.395Z,61.79
2023-03-13T21:17:15.947Z,62.98
2023-03-13T21:19:44.907Z,63.28
2023-03-13T21:22:13.049Z,64.00
2023-03-13T21:24:40.735Z,62.22
2023-03-13T21:27:08.464Z,62.28
2023-03-13T21:29:36.088Z,61.31
2023-03-13T21:32:03.788Z,64.44
2023-03-13T21:34:32.225Z,63.79
2023-03-13T21:36:59.808Z,64.89
2023-03-13T21:39:27.855Z,64.53
2023-03-13T21:41:56.177Z,65.16
2023-03-13T21:44:27.059Z,66.37
2023-03-13T21:46:55.413Z,67.25
2023-03-13T21:49:23.144Z,69.30
2023-03-13T21:51:51.253Z,70.25
2023-03-13T21:54:19.202Z,71.11
2023-03-13T21:56:47.251Z,71.29
2023-03-13T21:59:15.343Z,71.86
2023-03-13T22:01:43.607Z,72.99
2023-03-13T22:04:11.717Z,73.42
2023-03-13T22:06:40.502Z,74.47
2023-03-13T22:09:08.769Z,76.49
2023-03-13T22:11:36.326Z,77.26
2023-03-13T22:14:04.247Z,77.41
2023-03-13T22:16:31.722Z,77.03
2023-03-13T22:18:59.298Z,78.75
2023-03-13T22:21:26.796Z,80.89
2023-03-13T22:23:55.159Z,79.46
2023-03-13T22:26:23.841Z,78.85
2023-03-13T22:28:51.834Z,78.89
2023-03-13T22:31:19.797Z,80.55
2023-03-13T22:33:47.333Z,81.21
2023-03-13T22:36:14.798Z,81.10
2023-03-13T22:38:42.368Z,83.30
2023-03-13T22:41:13.168Z,84.21
2023-03-13T22:43:41.237Z,84.71
2023-03-13T22:46:11.166Z,83.52
2023-03-13T22:48:39.845Z,82.95
2023-03-13T22:51:09.998Z,85.52
2023-03-13T22:53:39.531Z,85.85
2023-03-13T22:56:10.073Z,87.03
2023-03-13T22:58:38.598Z,87.80
2023-03-13T23:01:07.793Z,88.42
2023-03-13T23:03:35.682Z,90.07
2023-03-13T23:06:08.270Z,89.44
2023-03-13T23:08:36.775Z,87.95
2023-03-13T23:11:05.223Z,88.49
2023-03-13T23:13:33.313Z,91.27
2023-03-13T23:16:00.869Z,91.83
2023-03-13T23:18:28.936Z,92.68
2023-03-13T23:20:56.461Z,90.85
2023-03-13T23:23:24.784Z,89.36
2023-03-13T23:25:52.295Z,90.33
2023-03-13T23:28:21.277Z,90.30
2023-03-13T23:30:49.127Z,92.31
2023-03-13T23:33:17.008Z,92.46
2023-03-13T23:35:45.154Z,91.86
2023-03-13T23:38:13.455Z,91.85
2023-03-13T23:40:41.330Z,93.45
2023-03-13T23:43:08.901Z,93.94
2023-03-13T23:45:36.704Z,93.73
2023-03-13T23:48:04.582Z,94.27
2023-03-13T23:50:32.595Z,95.81
2023-03-13T23:53:00.924Z,94.24
2023-03-13T23:55:28.823Z,93.54
2023-03-13T23:57:56.387Z,94.03
